createdAt,value
2017-09-19T00:01:24.524Z,10.00
2017-09-19T00:03:53.371Z,9.90
2017-09-19T00:06:21.472Z,9.90
2017-09-19T00:08:49.621Z,9.90
2017-09-19T00:11:17.695Z,10.00
2017-09-19T00:13:45.774Z,9.90
2017-09-19T00:16:13.946Z,9.60
2017-09-19T00:18:42.036Z,9.40
2017-09-19T00:21:10.102Z,9.60
2017-09-19T00:23:39.806Z,9.40
2017-09-19T00:26:09.382Z,9.50
2017-09-19T00:28:37.473Z,9.50
2017-09-19T00:31:05.539Z,9.40
2017-09-19T00:33:33.716Z,9.40
2017-09-19T00:36:01.790Z,9.50
2017-09-19T00:38:29.894Z,9.60
2017-09-19T00:40:58.080Z,9.50
2017-09-19T00:43:26.160Z,9.60
2017-09-19T00:45:54.233Z,9.50
2017-09-19T00:48:22.342Z,9.50
2017-09-19T00:50:50.415Z,9.70
2017-09-19T00:53:18.694Z,9.70
2017-09-19T00:55:46.776Z,9.40
2017-09-19T00:58:15.030Z,9.50
2017-09-19T01:00:43.119Z,9.50
2017-09-19T01:03:11.210Z,9.40
2017-09-19T01:05:39.320Z,9.40
2017-09-19T01:08:07.405Z,9.40
2017-09-19T01:10:35.520Z,9.70
2017-09-19T01:13:04.362Z,9.90
2017-09-19T01:15:49.116Z,9.80
2017-09-19T01:18:33.870Z,9.60
2017-09-19T01:21:01.943Z,9.70
2017-09-19T01:23:30.014Z,9.50
2017-09-19T01:25:58.101Z,9.40
2017-09-19T01:28:26.176Z,9.60
2017-09-19T01:30:54.251Z,9.50
2017-09-19T01:33:22.423Z,9.60
2017-09-19T01:35:50.516Z,9.60
2017-09-19T01:38:18.604Z,9.60
2017-09-19T01:40:46.714Z,9.70
2017-09-19T01:43:14.800Z,9.50
2017-09-19T01:45:42.883Z,9.40
2017-09-19T01:48:11.054Z,9.50
2017-09-19T01:50:39.124Z,9.60
2017-09-19T01:53:07.191Z,9.50
2017-09-19T01:55:35.255Z,9.60
2017-09-19T01:58:03.347Z,9.50
2017-09-19T02:00:31.409Z,9.50
2017-09-19T02:02:59.491Z,9.60
2017-09-19T02:05:27.734Z,9.60
2017-09-19T02:07:55.899Z,9.50
2017-09-19T02:10:23.974Z,9.60
2017-09-19T02:12:52.065Z,9.50
2017-09-19T02:15:20.134Z,9.60
2017-09-19T02:17:49.386Z,9.50
2017-09-19T02:20:17.548Z,9.50
2017-09-19T02:22:45.664Z,9.70
2017-09-19T02:25:13.828Z,9.80
2017-09-19T02:27:42.011Z,9.80
2017-09-19T02:30:10.106Z,9.90
2017-09-19T02:32:38.943Z,9.50
2017-09-19T02:35:07.028Z,9.50
2017-09-19T02:37:35.108Z,9.40
2017-09-19T02:40:03.200Z,9.40
2017-09-19T02:42:31.266Z,9.40
2017-09-19T02:44:59.346Z,9.50
2017-09-19T02:47:27.463Z,9.50
2017-09-19T02:49:55.602Z,9.50
2017-09-19T02:52:23.694Z,9.60
2017-09-19T02:54:51.818Z,9.60
2017-09-19T02:57:21.383Z,9.60
2017-09-19T02:59:49.458Z,9.60
2017-09-19T03:02:17.531Z,9.70
2017-09-19T03:04:45.631Z,9.70
2017-09-19T03:07:13.702Z,9.50
2017-09-19T03:09:41.783Z,9.50
2017-09-19T03:12:10.620Z,9.50
2017-09-19T03:14:38.703Z,9.50
2017-09-19T03:17:06.782Z,9.50
2017-09-19T03:19:34.976Z,9.30
2017-09-19T03:22:03.056Z,9.20
2017-09-19T03:24:31.139Z,9.30
2017-09-19T03:26:59.215Z,9.40
2017-09-19T03:29:27.327Z,9.50
2017-09-19T03:31:55.413Z,9.60
2017-09-19T03:34:24.300Z,9.60
2017-09-19T03:36:52.370Z,9.60
2017-09-19T03:39:20.451Z,9.60
2017-09-19T03:41:49.431Z,9.50
2017-09-19T03:44:17.526Z,9.50
2017-09-19T03:46:46.379Z,9.60
2017-09-19T03:49:14.456Z,9.60
2017-09-19T03:51:44.060Z,9.70
2017-09-19T03:54:12.147Z,9.70
2017-09-19T03:56:40.324Z,9.60
2017-09-19T03:59:09.175Z,9.50
2017-09-19T04:01:37.272Z,9.40
2017-09-19T04:04:05.562Z,9.60
2017-09-19T04:06:33.639Z,9.60
2017-09-19T04:09:01.726Z,9.70
2017-09-19T04:11:29.840Z,9.80
2017-09-19T04:13:57.920Z,9.60
2017-09-19T04:16:26.114Z,9.50
2017-09-19T04:18:54.969Z,9.50
2017-09-19T04:21:23.060Z,9.40
2017-09-19T04:23:51.140Z,9.50
2017-09-19T04:26:19.211Z,9.40
2017-09-19T04:28:47.284Z,9.30
2017-09-19T04:31:16.146Z,9.30
2017-09-19T04:33:44.375Z,9.30
2017-09-19T04:36:12.518Z,9.40
2017-09-19T04:38:40.777Z,9.50
2017-09-19T04:41:09.616Z,9.60
2017-09-19T04:43:37.696Z,9.60
2017-09-19T04:46:05.824Z,9.40
2017-09-19T04:48:34.676Z,9.50
2017-09-19T04:51:02.761Z,9.50
2017-09-19T04:53:30.856Z,9.50
2017-09-19T04:55:59.111Z,9.20
2017-09-19T04:58:28.700Z,9.10
2017-09-19T05:00:56.888Z,9.10
2017-09-19T05:03:26.532Z,9.30
2017-09-19T05:05:55.376Z,9.30
2017-09-19T05:08:23.444Z,9.30
2017-09-19T05:10:51.530Z,9.40
2017-09-19T05:13:20.375Z,9.10
2017-09-19T05:15:48.583Z,9.10
2017-09-19T05:18:16.672Z,9.00
2017-09-19T05:20:44.818Z,9.10
2017-09-19T05:23:12.900Z,9.10
2017-09-19T05:25:41.073Z,9.00
2017-09-19T05:28:09.353Z,9.00
2017-09-19T05:30:38.204Z,9.00
2017-09-19T05:33:06.300Z,9.00
2017-09-19T05:35:34.475Z,9.10
2017-09-19T05:38:02.662Z,9.10
2017-09-19T05:40:30.736Z,9.20
2017-09-19T05:42:58.876Z,8.90
2017-09-19T05:45:26.967Z,8.90
2017-09-19T05:47:55.828Z,8.90
2017-09-19T05:50:23.943Z,8.90
2017-09-19T05:52:52.809Z,8.90
2017-09-19T05:55:20.989Z,8.90
2017-09-19T05:57:49.071Z,9.00
2017-09-19T06:00:17.152Z,9.10
2017-09-19T06:02:45.281Z,9.20
2017-09-19T06:05:13.471Z,9.20
2017-09-19T06:07:41.542Z,9.30
2017-09-19T06:10:09.628Z,9.20
2017-09-19T06:12:37.699Z,9.30
2017-09-19T06:15:06.541Z,9.30
2017-09-19T06:17:34.608Z,9.30
2017-09-19T06:20:02.710Z,9.40
2017-09-19T06:22:30.793Z,9.50
2017-09-19T06:24:58.893Z,9.40
2017-09-19T06:27:26.990Z,9.40
2017-09-19T06:29:55.071Z,9.40
2017-09-19T06:32:23.147Z,9.50
2017-09-19T06:34:51.326Z,9.60
2017-09-19T06:37:19.399Z,9.70
2017-09-19T06:39:47.479Z,9.90
2017-09-19T06:42:15.559Z,10.10
2017-09-19T06:44:44.405Z,11.80
2017-09-19T06:47:12.485Z,11.80
2017-09-19T06:49:40.567Z,11.60
2017-09-19T06:52:10.163Z,11.50
2017-09-19T06:54:38.521Z,11.40
2017-09-19T06:57:06.595Z,11.60
2017-09-19T06:59:34.686Z,11.50
2017-09-19T07:02:02.792Z,11.60
2017-09-19T07:04:30.873Z,11.60
2017-09-19T07:06:58.975Z,11.40
2017-09-19T07:09:27.059Z,11.10
2017-09-19T07:11:55.131Z,11.10
2017-09-19T07:14:23.320Z,11.10
2017-09-19T07:16:51.403Z,11.40
2017-09-19T07:19:19.481Z,11.30
2017-09-19T07:21:48.319Z,11.50
2017-09-19T07:24:16.397Z,11.50
2017-09-19T07:26:44.505Z,11.90
2017-09-19T07:29:13.349Z,12.10
2017-09-19T07:31:41.433Z,12.10
2017-09-19T07:34:09.685Z,12.40
2017-09-19T07:36:37.775Z,12.80
2017-09-19T07:39:05.868Z,14.10
2017-09-19T07:41:34.016Z,14.50
2017-09-19T07:44:02.140Z,14.70
2017-09-19T07:46:31.001Z,13.90
2017-09-19T07:48:59.093Z,13.90
2017-09-19T07:51:27.943Z,15.70
2017-09-19T07:53:56.084Z,15.70
2017-09-19T07:56:24.341Z,17.50
2017-09-19T07:58:52.405Z,17.40
2017-09-19T08:01:21.344Z,18.70
2017-09-19T08:03:49.420Z,18.70
2017-09-19T08:06:17.525Z,18.60
2017-09-19T08:08:46.392Z,19.80
2017-09-19T08:11:14.523Z,19.80
2017-09-19T08:13:42.608Z,19.70
2017-09-19T08:16:10.711Z,19.60
2017-09-19T08:18:38.825Z,18.90
2017-09-19T08:21:07.203Z,19.00
2017-09-19T08:23:35.302Z,18.90
2017-09-19T08:26:03.407Z,19.20
2017-09-19T08:28:31.458Z,18.60
2017-09-19T08:30:59.545Z,16.80
2017-09-19T08:33:27.616Z,17.30
2017-09-19T08:35:55.705Z,16.60
2017-09-19T08:38:24.547Z,13.80
2017-09-19T08:40:52.636Z,13.70
2017-09-19T08:43:20.715Z,14.50
2017-09-19T08:45:48.809Z,13.30
2017-09-19T08:48:17.666Z,14.10
2017-09-19T08:50:45.796Z,14.10
2017-09-19T08:53:13.878Z,14.20
2017-09-19T08:55:41.959Z,13.40
2017-09-19T08:58:10.027Z,13.10
2017-09-19T09:00:38.102Z,13.30
2017-09-19T09:03:06.295Z,14.10
2017-09-19T09:05:34.379Z,14.90
2017-09-19T09:08:02.469Z,14.80
2017-09-19T09:10:30.579Z,15.40
2017-09-19T09:12:58.666Z,16.10
2017-09-19T09:15:26.763Z,16.00
2017-09-19T09:17:54.922Z,17.20
2017-09-19T09:20:23.187Z,17.60
2017-09-19T09:22:51.267Z,17.90
2017-09-19T09:25:19.533Z,17.70
2017-09-19T09:27:47.678Z,17.40
2017-09-19T09:30:15.763Z,15.70
2017-09-19T09:32:43.844Z,15.60
2017-09-19T09:35:12.025Z,16.10
2017-09-19T09:37:40.291Z,15.90
2017-09-19T09:40:08.452Z,16.00
2017-09-19T09:42:36.542Z,16.00
2017-09-19T09:45:04.736Z,15.90
2017-09-19T09:47:32.828Z,16.00
2017-09-19T09:50:00.914Z,15.90
2017-09-19T09:52:29.011Z,15.80
2017-09-19T09:54:57.089Z,15.90
2017-09-19T09:57:25.267Z,15.80
2017-09-19T09:59:53.353Z,16.10
2017-09-19T10:02:21.488Z,16.40
2017-09-19T10:04:49.571Z,15.50
2017-09-19T10:07:17.659Z,15.50
2017-09-19T10:09:45.739Z,15.30
2017-09-19T10:12:14.708Z,15.30
2017-09-19T10:14:42.813Z,15.30
2017-09-19T10:17:10.891Z,15.10
2017-09-19T10:19:38.986Z,15.00
2017-09-19T10:22:07.072Z,14.80
2017-09-19T10:24:35.160Z,14.80
2017-09-19T10:27:04.036Z,14.90
2017-09-19T10:29:32.106Z,14.90
2017-09-19T10:32:00.183Z,15.20
2017-09-19T10:34:28.265Z,15.80
2017-09-19T10:36:56.362Z,18.10
2017-09-19T10:39:24.507Z,21.00
2017-09-19T10:41:52.595Z,23.00
2017-09-19T10:44:21.535Z,20.90
2017-09-19T10:46:49.736Z,20.80
2017-09-19T10:49:17.879Z,23.60
2017-09-19T10:51:46.085Z,20.30
2017-09-19T10:54:15.676Z,17.10
2017-09-19T10:56:43.752Z,17.10
2017-09-19T10:59:11.834Z,17.60
2017-09-19T11:01:39.902Z,15.90
2017-09-19T11:04:08.019Z,15.80
2017-09-19T11:06:36.095Z,16.00
2017-09-19T11:09:04.215Z,16.40
2017-09-19T11:11:33.807Z,15.00
2017-09-19T11:14:01.894Z,15.00
2017-09-19T11:16:30.783Z,14.40
2017-09-19T11:18:58.865Z,15.20
2017-09-19T11:21:27.833Z,15.30
2017-09-19T11:23:56.728Z,15.50
2017-09-19T11:26:24.871Z,15.50
2017-09-19T11:28:53.068Z,15.70
2017-09-19T11:31:21.146Z,15.70
2017-09-19T11:33:49.420Z,15.90
2017-09-19T11:36:17.511Z,16.20
2017-09-19T11:38:46.356Z,18.70
2017-09-19T11:41:14.439Z,18.60
2017-09-19T11:43:42.512Z,19.40
2017-09-19T11:46:10.597Z,19.50
2017-09-19T11:48:38.673Z,19.10
2017-09-19T11:51:07.528Z,18.40
2017-09-19T11:53:35.616Z,18.40
2017-09-19T11:56:03.700Z,18.10
2017-09-19T11:58:32.546Z,18.40
2017-09-19T12:01:00.636Z,18.40
2017-09-19T12:03:28.712Z,19.20
2017-09-19T12:05:56.806Z,19.30
2017-09-19T12:08:25.647Z,18.30
2017-09-19T12:10:54.732Z,18.30
2017-09-19T12:13:22.819Z,18.20
2017-09-19T12:15:50.912Z,18.00
2017-09-19T12:18:18.987Z,18.20
2017-09-19T12:20:47.065Z,18.40
2017-09-19T12:23:15.910Z,17.90
2017-09-19T12:25:43.987Z,17.90
2017-09-19T12:28:12.067Z,18.50
2017-09-19T12:30:40.148Z,18.40
2017-09-19T12:33:08.242Z,18.60
2017-09-19T12:35:37.083Z,20.40
2017-09-19T12:38:05.165Z,20.40
2017-09-19T12:40:33.339Z,21.00
2017-09-19T12:43:01.431Z,21.10
2017-09-19T12:45:30.305Z,19.80
2017-09-19T12:47:58.392Z,19.70
2017-09-19T12:50:27.240Z,19.40
2017-09-19T12:52:55.329Z,19.30
2017-09-19T12:55:23.418Z,18.70
2017-09-19T12:57:52.379Z,18.70
2017-09-19T13:00:20.473Z,18.70
2017-09-19T13:02:48.751Z,18.50
2017-09-19T13:05:17.620Z,18.40
2017-09-19T13:07:45.696Z,18.40
2017-09-19T13:10:13.780Z,18.40
2017-09-19T13:12:41.858Z,17.70
2017-09-19T13:15:10.697Z,18.30
2017-09-19T13:17:38.783Z,18.20
2017-09-19T13:20:06.852Z,18.20
2017-09-19T13:22:34.943Z,17.70
2017-09-19T13:25:03.025Z,17.70
2017-09-19T13:27:31.871Z,17.70
2017-09-19T13:29:59.971Z,17.70
2017-09-19T13:32:39.686Z,17.40
2017-09-19T13:35:07.763Z,17.70
2017-09-19T13:37:35.847Z,17.60
2017-09-19T13:40:03.924Z,17.70
2017-09-19T13:42:32.018Z,17.50
2017-09-19T13:45:00.162Z,17.70
2017-09-19T13:47:28.234Z,17.80
2017-09-19T13:49:56.345Z,16.90
2017-09-19T13:52:25.167Z,16.10
2017-09-19T13:54:53.256Z,16.00
2017-09-19T13:57:21.335Z,16.70
2017-09-19T13:59:49.411Z,17.10
2017-09-19T14:02:18.404Z,17.30
2017-09-19T14:04:46.495Z,17.40
2017-09-19T14:07:14.737Z,17.20
2017-09-19T14:09:42.819Z,17.00
2017-09-19T14:12:11.675Z,16.70
2017-09-19T14:14:39.854Z,16.70
2017-09-19T14:17:08.046Z,16.70
2017-09-19T14:19:36.180Z,16.50
2017-09-19T14:22:04.289Z,16.20
2017-09-19T14:24:32.481Z,16.20
2017-09-19T14:27:00.567Z,16.20
2017-09-19T14:29:28.739Z,16.30
2017-09-19T14:31:56.879Z,16.30
2017-09-19T14:34:25.732Z,16.30
2017-09-19T14:36:53.929Z,16.20
2017-09-19T14:39:22.000Z,16.30
2017-09-19T14:41:50.097Z,16.30
2017-09-19T14:44:18.944Z,16.40
2017-09-19T14:46:47.031Z,16.40
2017-09-19T14:49:15.113Z,16.40
2017-09-19T14:51:43.203Z,16.30
2017-09-19T14:54:11.357Z,16.30
2017-09-19T14:56:40.218Z,16.10
2017-09-19T14:59:08.304Z,16.10
2017-09-19T15:01:36.399Z,16.00
2017-09-19T15:04:05.256Z,15.70
2017-09-19T15:06:33.420Z,15.70
2017-09-19T15:09:01.498Z,15.70
2017-09-19T15:11:29.677Z,15.80
2017-09-19T15:13:58.567Z,15.60
2017-09-19T15:16:26.702Z,15.50
2017-09-19T15:18:54.808Z,15.50
2017-09-19T15:21:22.895Z,15.40
2017-09-19T15:23:51.739Z,15.00
2017-09-19T15:26:19.835Z,15.00
2017-09-19T15:28:47.917Z,15.10
2017-09-19T15:31:15.997Z,15.20
2017-09-19T15:33:44.898Z,15.10
2017-09-19T15:36:13.052Z,15.10
2017-09-19T15:38:41.932Z,15.40
2017-09-19T15:41:10.015Z,15.40
2017-09-19T15:43:38.862Z,15.50
2017-09-19T15:46:06.944Z,15.50
2017-09-19T15:48:35.027Z,15.70
2017-09-19T15:51:03.115Z,15.30
2017-09-19T15:53:31.191Z,15.60
2017-09-19T15:55:59.320Z,15.60
2017-09-19T15:58:27.399Z,15.60
2017-09-19T16:00:56.392Z,15.50
2017-09-19T16:03:24.470Z,15.50
2017-09-19T16:05:52.554Z,15.50
2017-09-19T16:08:21.394Z,15.00
2017-09-19T16:10:49.531Z,15.00
2017-09-19T16:13:18.365Z,15.10
2017-09-19T16:15:46.440Z,15.10
2017-09-19T16:18:14.522Z,15.00
2017-09-19T16:20:42.607Z,15.00
2017-09-19T16:23:10.723Z,15.00
2017-09-19T16:25:38.814Z,14.90
2017-09-19T16:28:06.906Z,14.80
2017-09-19T16:30:34.979Z,14.70
2017-09-19T16:33:03.060Z,14.70
2017-09-19T16:35:31.136Z,14.70
2017-09-19T16:37:59.987Z,14.30
2017-09-19T16:40:28.063Z,14.30
2017-09-19T16:42:56.160Z,14.20
2017-09-19T16:45:24.239Z,14.30
2017-09-19T16:47:53.096Z,13.70
2017-09-19T16:50:21.163Z,13.70
2017-09-19T16:52:49.269Z,13.60
2017-09-19T16:55:18.108Z,13.50
2017-09-19T16:57:46.204Z,13.50
2017-09-19T17:00:14.276Z,13.30
2017-09-19T17:02:42.724Z,13.20
2017-09-19T17:05:10.782Z,13.00
2017-09-19T17:07:38.884Z,12.90
2017-09-19T17:10:07.072Z,12.70
2017-09-19T17:12:35.164Z,12.70
2017-09-19T17:15:03.244Z,12.50
2017-09-19T17:17:31.331Z,12.00
2017-09-19T17:19:59.510Z,11.90
2017-09-19T17:22:27.714Z,11.70
2017-09-19T17:24:55.795Z,11.60
2017-09-19T17:27:24.682Z,11.70
2017-09-19T17:29:52.927Z,11.50
2017-09-19T17:32:20.980Z,11.60
2017-09-19T17:34:49.061Z,11.50
2017-09-19T17:37:17.141Z,11.50
2017-09-19T17:43:27.963Z,11.50
2017-09-19T17:45:56.304Z,11.00
2017-09-19T17:48:24.784Z,10.90
2017-09-19T17:50:53.119Z,11.00
2017-09-19T17:53:21.384Z,11.30
2017-09-19T17:55:49.628Z,11.20
2017-09-19T17:58:17.984Z,11.00
2017-09-19T18:00:46.329Z,11.00
2017-09-19T18:03:14.686Z,10.90
2017-09-19T18:05:43.036Z,10.80
2017-09-19T18:08:11.425Z,10.60
2017-09-19T18:10:40.316Z,10.70
2017-09-19T18:13:09.077Z,10.70
2017-09-19T18:15:37.256Z,10.70
2017-09-19T18:18:05.336Z,10.90
2017-09-19T18:20:33.458Z,11.00
2017-09-19T18:23:01.549Z,11.00
2017-09-19T18:25:29.871Z,11.00
2017-09-19T18:27:58.289Z,10.90
2017-09-19T18:30:27.305Z,10.90
2017-09-19T18:32:56.607Z,11.00
2017-09-19T18:35:25.058Z,11.00
2017-09-19T18:37:53.374Z,10.80
2017-09-19T18:40:21.695Z,10.70
2017-09-19T18:42:50.244Z,10.70
2017-09-19T18:45:18.750Z,10.70
2017-09-19T18:47:47.194Z,10.50
2017-09-19T18:50:15.666Z,10.30
2017-09-19T18:52:44.060Z,10.50
2017-09-19T18:55:13.216Z,10.30
2017-09-19T18:57:41.517Z,10.10
2017-09-19T19:00:09.912Z,10.00
2017-09-19T19:02:38.259Z,10.20
2017-09-19T19:05:07.344Z,10.20
2017-09-19T19:07:36.373Z,10.10
2017-09-19T19:10:04.676Z,10.00
2017-09-19T19:12:32.963Z,10.00
2017-09-19T19:15:01.336Z,10.00
2017-09-19T19:17:29.841Z,10.00
2017-09-19T19:19:58.982Z,10.10
2017-09-19T19:22:27.619Z,10.10
2017-09-19T19:24:56.528Z,10.00
2017-09-19T19:27:25.678Z,9.70
2017-09-19T19:29:54.523Z,9.70
2017-09-19T19:32:22.695Z,9.70
2017-09-19T19:34:51.644Z,9.90
2017-09-19T19:37:19.971Z,9.80
2017-09-19T19:39:48.051Z,9.40
2017-09-19T19:42:17.631Z,9.70
2017-09-19T19:44:45.716Z,9.70
2017-09-19T19:47:13.794Z,9.60
2017-09-19T19:49:42.647Z,10.00
2017-09-19T19:52:10.719Z,10.00
2017-09-19T19:54:38.824Z,10.10
2017-09-19T19:57:06.895Z,10.10
2017-09-19T19:59:35.068Z,10.20
2017-09-19T20:02:03.252Z,10.20
2017-09-19T20:04:32.100Z,10.40
2017-09-19T20:07:00.203Z,10.40
2017-09-19T20:09:28.379Z,10.40
2017-09-19T20:11:56.546Z,10.40
2017-09-19T20:14:24.712Z,10.40
2017-09-19T20:16:52.793Z,10.50
2017-09-19T20:19:21.688Z,10.00
2017-09-19T20:21:49.785Z,9.90
2017-09-19T20:24:17.900Z,10.10
2017-09-19T20:26:46.895Z,10.00
2017-09-19T20:29:16.501Z,9.90
2017-09-19T20:31:44.583Z,9.90
2017-09-19T20:34:13.438Z,9.90
2017-09-19T20:36:41.533Z,9.90
2017-09-19T20:39:09.619Z,10.00
2017-09-19T20:41:37.694Z,9.90
2017-09-19T20:44:05.852Z,9.80
2017-09-19T20:46:33.932Z,9.80
2017-09-19T20:49:02.780Z,10.10
2017-09-19T20:51:30.871Z,10.10
2017-09-19T20:53:58.968Z,10.30
2017-09-19T20:56:27.812Z,10.60
2017-09-19T20:58:56.098Z,10.60
2017-09-19T21:01:24.177Z,10.60
2017-09-19T21:03:57.814Z,10.50
2017-09-19T21:06:32.403Z,10.50
2017-09-19T21:09:06.295Z,10.50
2017-09-19T21:11:40.016Z,10.30
2017-09-19T21:14:13.708Z,10.30
2017-09-19T21:16:47.364Z,10.50
2017-09-19T21:19:21.038Z,10.50
2017-09-19T21:21:49.119Z,10.60
2017-09-19T21:24:17.204Z,10.70
2017-09-19T21:26:45.289Z,10.50
2017-09-19T21:29:13.379Z,10.50
2017-09-19T21:31:41.467Z,10.30
2017-09-19T21:34:09.560Z,10.40
2017-09-19T21:36:38.410Z,10.40
2017-09-19T21:39:06.567Z,10.40
2017-09-19T21:41:34.638Z,10.30
2017-09-19T21:44:02.723Z,10.50
2017-09-19T21:46:30.797Z,10.20
2017-09-19T21:48:58.878Z,10.00
2017-09-19T21:51:26.956Z,10.00
2017-09-19T21:53:55.035Z,9.90
2017-09-19T21:56:23.879Z,9.90
2017-09-19T21:58:51.966Z,9.90
2017-09-19T22:01:20.050Z,9.80
2017-09-19T22:03:48.131Z,9.70
2017-09-19T22:06:16.976Z,9.60
2017-09-19T22:08:45.057Z,9.60
2017-09-19T22:11:13.164Z,9.50
2017-09-19T22:13:41.307Z,9.70
2017-09-19T22:16:09.396Z,9.70
2017-09-19T22:18:37.480Z,9.60
2017-09-19T22:21:06.332Z,9.90
2017-09-19T22:23:34.411Z,9.90
2017-09-19T22:26:02.507Z,9.90
2017-09-19T22:28:31.363Z,10.00
2017-09-19T22:30:59.494Z,10.00
2017-09-19T22:33:27.580Z,9.80
2017-09-19T22:35:55.683Z,9.50
2017-09-19T22:38:23.784Z,9.20
2017-09-19T22:40:52.644Z,8.70
2017-09-19T22:43:20.727Z,8.70
2017-09-19T22:45:49.580Z,8.90
2017-09-19T22:48:17.651Z,8.80
2017-09-19T22:50:45.748Z,8.80
2017-09-19T22:53:13.839Z,8.80
2017-09-19T22:55:42.693Z,8.70
2017-09-19T22:58:10.777Z,8.70
2017-09-19T23:00:38.873Z,8.80
2017-09-19T23:03:07.711Z,8.50
2017-09-19T23:05:35.796Z,8.50
2017-09-19T23:08:03.881Z,8.60
2017-09-19T23:10:31.961Z,8.60
2017-09-19T23:13:00.811Z,8.60
2017-09-19T23:15:28.895Z,8.50
2017-09-19T23:17:56.984Z,8.60
2017-09-19T23:20:25.841Z,8.80
2017-09-19T23:22:53.920Z,8.80
2017-09-19T23:25:22.014Z,8.80
2017-09-19T23:27:50.091Z,8.70
2017-09-19T23:30:18.945Z,8.50
2017-09-19T23:32:47.022Z,8.50
2017-09-19T23:35:15.123Z,8.50
2017-09-19T23:37:43.962Z,8.50
2017-09-19T23:40:12.053Z,8.50
2017-09-19T23:42:40.140Z,8.40
2017-09-19T23:45:09.004Z,8.40
2017-09-19T23:47:37.083Z,8.40
2017-09-19T23:50:05.174Z,8.40
2017-09-19T23:52:34.019Z,8.40
2017-09-19T23:55:02.120Z,8.40
2017-09-19T23:57:30.204Z,8.40
2017-09-19T23:59:59.071Z,8.40
